Mattox, Texas
Current Conditions -  °F | °C
As of 1:35 AM on Sunday 23 Nov 2014 (Local Time) from KJAS Reporting Station
Moderate Rain Moderate Rain  
Wind Chill: 64°   Ceiling: 900
Heat Index: 64°   Visibility: 7mi
Dew Point: 62°   Wind: 7mph
Humidity: 95%   Direction: 120°ESE
Pressure: 29.73"   Gusts: NA
Location:  31.0751°N, 93.8073°W
Report Text: KJAS 230735Z AUTO 12006KT 7SM RA SCT006 BKN009 OVC030 18/17 A2973 RMK AO2 P0006 T01750167
Loading
Personal Weather Stations






























Interactive Weather Map New forecast layout! Learn more

10-Day Weather Forecast

Advertisements
Track Severe Weather on mobile